createdAt,value
2019-06-27T00:12:46.352Z,16.5
2019-06-27T00:29:30.196Z,16.5
2019-06-27T00:46:13.967Z,16.5
2019-06-27T01:02:58.141Z,16.5
2019-06-27T01:19:41.521Z,16.5
2019-06-27T01:36:25.318Z,16.2
2019-06-27T01:53:09.002Z,16.2
2019-06-27T02:09:52.653Z,16.2
2019-06-27T02:26:36.324Z,16.2
2019-06-27T02:43:19.943Z,16.2
2019-06-27T03:00:03.235Z,15.8
2019-06-27T03:16:46.177Z,15.8
2019-06-27T03:33:28.979Z,15.8
2019-06-27T03:50:11.760Z,15.8
2019-06-27T04:06:54.839Z,16.2
2019-06-27T04:23:38.162Z,15.8
2019-06-27T04:40:21.403Z,15.5
2019-06-27T04:57:04.452Z,15.2
2019-06-27T05:13:47.465Z,15.5
2019-06-27T05:23:49.597Z,16.2
2019-06-27T05:40:32.773Z,15.8
2019-06-27T05:53:55.480Z,16.5
2019-06-27T06:10:38.973Z,16.8
2019-06-27T06:17:20.622Z,17.4
2019-06-27T06:30:45.214Z,18.1
2019-06-27T06:44:08.214Z,17.8
2019-06-27T07:01:01.579Z,17.8
2019-06-27T07:07:34.519Z,17.1
2019-06-27T07:20:57.794Z,17.8
2019-06-27T07:37:42.574Z,18.1
2019-06-27T07:54:27.594Z,18.4
2019-06-27T08:01:09.834Z,19.0
2019-06-27T08:11:13.852Z,18.4
2019-06-27T08:27:58.564Z,19.0
2019-06-27T08:44:44.462Z,19.0
2019-06-27T08:54:48.858Z,19.7
2019-06-27T09:11:38.009Z,20.0
2019-06-27T09:25:00.550Z,20.6
2019-06-27T09:41:47.390Z,21.0
2019-06-27T09:58:34.897Z,21.3
2019-06-27T10:15:23.178Z,21.3
2019-06-27T10:28:49.068Z,21.9
2019-06-27T10:45:37.415Z,21.6
2019-06-27T11:02:26.121Z,22.2
2019-06-27T11:19:14.961Z,22.6
2019-06-27T11:36:04.168Z,22.9
2019-06-27T11:52:53.805Z,23.2
2019-06-27T12:09:43.572Z,23.5
2019-06-27T12:26:33.839Z,23.8
2019-06-27T12:43:24.296Z,23.8
2019-06-27T13:00:14.542Z,24.2
2019-06-27T13:17:05.354Z,24.5
2019-06-27T13:33:56.103Z,24.5
2019-06-27T13:50:47.113Z,24.5
2019-06-27T14:07:38.222Z,24.8
2019-06-27T14:24:29.642Z,25.1
2019-06-27T14:41:21.313Z,25.1
2019-06-27T14:58:13.224Z,24.8
2019-06-27T15:15:03.869Z,25.1
2019-06-27T15:25:10.587Z,24.5
2019-06-27T15:42:01.799Z,24.2
2019-06-27T15:58:51.885Z,23.8
2019-06-27T16:12:20.255Z,24.5
2019-06-27T16:29:10.988Z,24.8
2019-06-27T16:35:55.556Z,25.8
2019-06-27T16:49:25.492Z,26.4
2019-06-27T17:06:18.453Z,26.7
2019-06-27T17:23:12.376Z,26.7
2019-06-27T17:40:09.890Z,26.1
2019-06-27T17:53:37.324Z,25.1
2019-06-27T17:56:59.540Z,24.5
2019-06-27T18:03:43.919Z,23.5
2019-06-27T18:10:27.753Z,22.9
2019-06-27T18:17:11.667Z,22.2
2019-06-27T18:34:00.291Z,21.6
2019-06-27T18:50:48.068Z,21.3
2019-06-27T19:00:52.876Z,20.6
2019-06-27T19:14:18.195Z,20.0
2019-06-27T19:27:43.520Z,19.4
2019-06-27T19:38:00.963Z,18.7
2019-06-27T19:51:11.471Z,18.4
2019-06-27T19:57:53.402Z,17.8
2019-06-27T20:14:38.050Z,17.4
2019-06-27T20:31:22.240Z,17.1
2019-06-27T20:48:06.245Z,16.8
2019-06-27T21:04:49.935Z,16.5
2019-06-27T21:21:33.371Z,16.2
2019-06-27T21:38:16.467Z,15.8
2019-06-27T21:54:59.335Z,15.5
2019-06-27T22:11:42.004Z,15.2
2019-06-27T22:28:24.494Z,15.2
2019-06-27T22:45:06.807Z,14.9
2019-06-27T23:01:49.109Z,14.9
2019-06-27T23:18:31.437Z,14.9
2019-06-27T23:35:13.637Z,14.6
2019-06-27T23:51:55.683Z,14.6
